createdAt,value
2023-03-14T00:01:14.997Z,2.50
2023-03-14T00:03:43.198Z,1.60
2023-03-14T00:06:12.807Z,1.30
2023-03-14T00:08:42.916Z,0.97
2023-03-14T00:11:15.613Z,1.90
2023-03-14T00:13:43.833Z,1.90
2023-03-14T00:16:14.722Z,1.03
2023-03-14T00:18:43.253Z,2.33
2023-03-14T00:21:14.147Z,1.50
2023-03-14T00:23:45.368Z,1.03
2023-03-14T00:26:16.345Z,2.50
2023-03-14T00:28:45.478Z,1.90
2023-03-14T00:31:16.911Z,1.20
2023-03-14T00:33:46.248Z,1.93
2023-03-14T00:36:17.440Z,3.00
2023-03-14T00:38:49.468Z,1.83
2023-03-14T00:41:20.728Z,1.57
2023-03-14T00:43:48.868Z,1.30
2023-03-14T00:46:17.270Z,1.73
2023-03-14T00:48:47.001Z,1.43
2023-03-14T00:51:16.285Z,2.23
2023-03-14T00:53:46.729Z,1.40
2023-03-14T00:56:15.436Z,1.43
2023-03-14T00:58:43.630Z,1.80
2023-03-14T01:01:16.533Z,1.00
2023-03-14T01:03:45.259Z,1.10
2023-03-14T01:06:16.446Z,1.53
2023-03-14T01:08:46.492Z,1.10
2023-03-14T01:11:17.890Z,1.40
2023-03-14T01:13:46.375Z,1.37
2023-03-14T01:16:15.881Z,1.63
2023-03-14T01:18:46.494Z,1.60
2023-03-14T01:21:18.913Z,1.20
2023-03-14T01:23:49.677Z,2.50
2023-03-14T01:26:20.898Z,1.40
2023-03-14T01:28:51.244Z,1.00
2023-03-14T01:31:20.104Z,1.17
2023-03-14T01:33:49.096Z,0.80
2023-03-14T01:36:17.557Z,0.70
2023-03-14T01:38:46.526Z,1.97
2023-03-14T01:41:19.429Z,1.13
2023-03-14T01:43:48.034Z,0.70
2023-03-14T01:46:33.993Z,0.83
2023-03-14T01:49:14.106Z,1.00
2023-03-14T01:51:50.487Z,1.40
2023-03-14T01:54:26.749Z,0.97
2023-03-14T01:57:04.336Z,1.67
2023-03-14T01:59:34.700Z,1.87
2023-03-14T02:02:04.310Z,1.70
2023-03-14T02:04:37.063Z,1.40
2023-03-14T02:07:15.444Z,1.37
2023-03-14T02:09:44.602Z,0.90
2023-03-14T02:12:19.731Z,1.40
2023-03-14T02:14:49.077Z,0.80
2023-03-14T02:17:20.951Z,1.07
2023-03-14T02:20:10.046Z,0.80
2023-03-14T02:22:42.154Z,1.70
2023-03-14T02:25:18.669Z,0.60
2023-03-14T02:27:50.305Z,0.70
2023-03-14T02:30:21.941Z,1.47
2023-03-14T02:32:56.540Z,0.77
2023-03-14T02:35:29.770Z,0.70
2023-03-14T02:38:05.968Z,2.30
2023-03-14T02:40:34.221Z,0.60
2023-03-14T02:43:03.858Z,1.50
2023-03-14T02:45:43.554Z,1.27
2023-03-14T02:48:19.021Z,0.93
2023-03-14T02:50:50.786Z,0.60
2023-03-14T02:53:23.767Z,1.03
2023-03-14T02:55:52.695Z,1.00
2023-03-14T02:58:22.961Z,0.87
2023-03-14T03:00:51.207Z,0.83
2023-03-14T03:03:20.113Z,1.10
2023-03-14T03:05:52.436Z,1.20
2023-03-14T03:08:21.363Z,0.83
2023-03-14T03:10:50.211Z,1.10
2023-03-14T03:13:19.544Z,1.87
2023-03-14T03:15:49.326Z,0.87
2023-03-14T03:18:17.927Z,0.70
2023-03-14T03:20:46.631Z,1.73
2023-03-14T03:23:15.291Z,0.80
2023-03-14T03:25:43.476Z,1.47
2023-03-14T03:28:11.691Z,0.93
2023-03-14T03:30:41.029Z,1.67
2023-03-14T03:33:11.260Z,1.47
2023-03-14T03:35:48.104Z,2.50
2023-03-14T03:38:16.994Z,1.10
2023-03-14T03:40:45.375Z,1.97
2023-03-14T03:43:13.480Z,1.30
2023-03-14T03:45:41.676Z,0.80
2023-03-14T03:48:11.182Z,0.90
2023-03-14T03:50:39.299Z,1.67
2023-03-14T03:53:07.383Z,1.40
2023-03-14T03:55:35.486Z,1.30
2023-03-14T03:58:03.586Z,2.80
2023-03-14T04:00:32.535Z,2.37
2023-03-14T04:03:01.601Z,1.47
2023-03-14T04:05:31.150Z,1.27
2023-03-14T04:07:59.255Z,1.50
2023-03-14T04:10:27.403Z,2.37
2023-03-14T04:12:55.552Z,1.33
2023-03-14T04:15:23.693Z,2.00
2023-03-14T04:17:51.903Z,1.10
2023-03-14T04:20:20.280Z,1.63
2023-03-14T04:22:49.792Z,1.73
2023-03-14T04:25:20.932Z,0.70
2023-03-14T04:27:52.936Z,2.03
2023-03-14T04:30:21.432Z,2.20
2023-03-14T04:32:49.693Z,3.13
2023-03-14T04:35:18.028Z,2.03
2023-03-14T04:37:49.895Z,1.60
2023-03-14T04:40:19.652Z,1.00
2023-03-14T04:42:47.761Z,1.20
2023-03-14T04:45:15.920Z,1.23
2023-03-14T04:47:44.131Z,2.60
2023-03-14T04:50:12.925Z,3.83
2023-03-14T04:52:41.029Z,1.27
2023-03-14T04:55:09.575Z,2.23
2023-03-14T04:57:39.030Z,3.97
2023-03-14T05:00:09.889Z,1.13
2023-03-14T05:02:38.101Z,3.60
2023-03-14T05:05:07.940Z,1.50
2023-03-14T05:07:36.058Z,3.97
2023-03-14T05:10:04.344Z,2.27
2023-03-14T05:12:32.448Z,2.27
2023-03-14T05:15:01.944Z,2.20
2023-03-14T05:17:31.482Z,1.43
2023-03-14T05:19:59.541Z,2.17
2023-03-14T05:22:27.907Z,3.03
2023-03-14T05:24:57.672Z,2.00
2023-03-14T05:27:25.852Z,1.60
2023-03-14T05:29:54.291Z,1.10
2023-03-14T05:32:23.767Z,3.13
2023-03-14T05:34:52.000Z,2.63
2023-03-14T05:37:21.265Z,1.60
2023-03-14T05:39:49.359Z,5.80
2023-03-14T05:42:17.439Z,5.50
2023-03-14T05:44:45.571Z,3.97
2023-03-14T05:47:13.759Z,3.03
2023-03-14T05:49:43.272Z,4.57
2023-03-14T05:52:11.454Z,5.67
2023-03-14T05:54:39.587Z,3.70
2023-03-14T05:57:08.383Z,2.43
2023-03-14T05:59:36.579Z,2.30
2023-03-14T06:02:04.924Z,2.87
2023-03-14T06:04:33.102Z,2.80
2023-03-14T06:07:02.613Z,3.43
2023-03-14T06:09:30.712Z,2.67
2023-03-14T06:11:58.918Z,1.30
2023-03-14T06:14:27.134Z,2.80
2023-03-14T06:16:55.321Z,2.70
2023-03-14T06:19:24.574Z,1.53
2023-03-14T06:21:52.680Z,3.63
2023-03-14T06:24:22.147Z,2.50
2023-03-14T06:26:50.258Z,2.97
2023-03-14T06:29:18.351Z,4.57
2023-03-14T06:31:46.532Z,4.10
2023-03-14T06:34:14.747Z,2.53
2023-03-14T06:36:42.848Z,3.20
2023-03-14T06:39:10.968Z,1.87
2023-03-14T06:41:40.416Z,2.00
2023-03-14T06:44:08.550Z,2.43
2023-03-14T06:46:36.732Z,3.63
2023-03-14T06:49:04.889Z,3.03
2023-03-14T06:51:32.976Z,4.47
2023-03-14T06:54:01.107Z,2.17
2023-03-14T06:56:29.228Z,2.27
2023-03-14T06:58:58.733Z,2.83
2023-03-14T07:01:31.105Z,4.87
2023-03-14T07:03:59.748Z,2.63
2023-03-14T07:06:30.209Z,2.57
2023-03-14T07:08:59.142Z,4.57
2023-03-14T07:11:28.167Z,5.07
2023-03-14T07:13:56.308Z,3.93
2023-03-14T07:16:29.541Z,1.87
2023-03-14T07:18:57.698Z,2.00
2023-03-14T07:21:25.946Z,1.90
2023-03-14T07:23:54.048Z,1.67
2023-03-14T07:26:22.337Z,3.27
2023-03-14T07:28:51.611Z,3.43
2023-03-14T07:31:19.827Z,1.73
2023-03-14T07:33:49.369Z,1.27
2023-03-14T07:36:17.983Z,1.40
2023-03-14T07:38:46.164Z,1.63
2023-03-14T07:41:14.354Z,1.47
2023-03-14T07:43:42.834Z,2.30
2023-03-14T07:46:11.146Z,2.50
2023-03-14T07:48:39.383Z,2.10
2023-03-14T07:51:09.671Z,2.97
2023-03-14T07:53:37.799Z,3.80
2023-03-14T07:56:06.692Z,1.85
2023-03-14T07:58:35.196Z,1.17
2023-03-14T08:01:04.384Z,2.77
2023-03-14T08:03:32.469Z,1.97
2023-03-14T08:06:00.621Z,3.03
2023-03-14T08:08:30.071Z,1.33
2023-03-14T08:10:58.188Z,1.83
2023-03-14T08:13:26.608Z,1.40
2023-03-14T08:15:54.741Z,1.83
2023-03-14T08:18:22.827Z,2.33
2023-03-14T08:20:50.994Z,2.90
2023-03-14T08:23:19.164Z,3.07
2023-03-14T08:25:51.228Z,3.20
2023-03-14T08:28:20.232Z,1.40
2023-03-14T08:30:48.411Z,2.73
2023-03-14T08:33:16.614Z,2.73
2023-03-14T08:35:44.770Z,1.60
2023-03-14T08:38:12.885Z,3.00
2023-03-14T08:40:40.995Z,2.17
2023-03-14T08:43:10.479Z,1.58
2023-03-14T08:45:38.893Z,1.65
2023-03-14T08:48:07.713Z,1.10
2023-03-14T08:50:35.892Z,1.38
2023-03-14T08:53:04.096Z,2.35
2023-03-14T08:55:32.337Z,2.83
2023-03-14T08:58:00.587Z,3.08
2023-03-14T09:00:30.066Z,2.30
2023-03-14T09:02:58.304Z,1.70
2023-03-14T09:05:26.522Z,1.17
2023-03-14T09:07:54.693Z,1.48
2023-03-14T09:10:22.853Z,3.13
2023-03-14T09:12:51.790Z,2.30
2023-03-14T09:15:20.323Z,1.40
2023-03-14T09:17:49.790Z,2.67
2023-03-14T09:20:18.694Z,3.05
2023-03-14T09:22:46.829Z,1.35
2023-03-14T09:25:14.994Z,1.67
2023-03-14T09:27:43.273Z,1.42
2023-03-14T09:30:13.021Z,1.10
2023-03-14T09:32:41.297Z,1.33
2023-03-14T09:35:11.829Z,1.42
2023-03-14T09:37:39.950Z,0.80
2023-03-14T09:40:13.206Z,2.63
2023-03-14T09:42:42.180Z,1.80
2023-03-14T09:45:19.473Z,1.10
2023-03-14T09:47:59.098Z,1.77
2023-03-14T09:50:38.694Z,1.25
2023-03-14T09:53:16.292Z,1.63
2023-03-14T09:55:47.092Z,1.25
2023-03-14T09:58:21.490Z,2.45
2023-03-14T10:00:51.968Z,2.72
2023-03-14T10:03:28.685Z,1.13
2023-03-14T10:05:59.011Z,2.45
2023-03-14T10:08:27.923Z,1.20
2023-03-14T10:10:56.557Z,0.95
2023-03-14T10:13:28.625Z,0.60
2023-03-14T10:16:01.928Z,2.30
2023-03-14T10:18:35.097Z,1.25
2023-03-14T10:21:22.848Z,1.23
2023-03-14T10:23:50.952Z,2.53
2023-03-14T10:26:25.466Z,1.70
2023-03-14T10:28:56.159Z,0.90
2023-03-14T10:31:27.761Z,1.15
2023-03-14T10:34:04.734Z,0.77
2023-03-14T10:36:36.037Z,1.30
2023-03-14T10:39:29.580Z,0.68
2023-03-14T10:42:09.049Z,1.17
2023-03-14T10:44:39.328Z,0.68
2023-03-14T10:47:07.901Z,1.00
2023-03-14T10:49:39.256Z,1.30
2023-03-14T10:52:31.204Z,0.90
2023-03-14T10:55:14.067Z,1.00
2023-03-14T10:57:43.561Z,0.70
2023-03-14T11:00:19.510Z,1.13
2023-03-14T11:03:06.878Z,3.30
2023-03-14T11:05:45.851Z,0.70
2023-03-14T11:08:27.735Z,2.67
2023-03-14T11:11:05.526Z,2.08
2023-03-14T11:13:41.282Z,1.05
2023-03-14T11:16:23.033Z,1.60
2023-03-14T11:19:22.409Z,1.00
2023-03-14T11:22:01.658Z,3.45
2023-03-14T11:24:51.650Z,1.50
2023-03-14T11:27:27.376Z,1.65
2023-03-14T11:30:07.799Z,1.95
2023-03-14T11:32:47.096Z,1.23
2023-03-14T11:35:24.945Z,1.70
2023-03-14T11:38:01.460Z,2.38
2023-03-14T11:40:33.205Z,2.53
2023-03-14T11:43:17.818Z,1.80
2023-03-14T11:45:49.293Z,0.93
2023-03-14T11:48:31.309Z,2.28
2023-03-14T11:51:04.193Z,0.88
2023-03-14T11:53:50.694Z,2.20
2023-03-14T11:56:30.073Z,0.90
2023-03-14T11:59:04.030Z,2.10
2023-03-14T12:01:54.008Z,0.47
2023-03-14T12:04:55.600Z,0.43
2023-03-14T12:07:31.721Z,0.40
2023-03-14T12:10:00.234Z,0.40
2023-03-14T12:12:33.155Z,0.73
2023-03-14T12:15:04.523Z,0.40
2023-03-14T12:17:39.855Z,1.27
2023-03-14T12:20:20.162Z,0.98
2023-03-14T12:22:52.478Z,0.77
2023-03-14T12:25:23.905Z,2.30
2023-03-14T12:28:18.165Z,0.50
2023-03-14T12:30:46.308Z,0.63
2023-03-14T12:33:33.241Z,2.13
2023-03-14T12:36:15.023Z,1.95
2023-03-14T12:38:58.961Z,1.25
2023-03-14T12:41:36.973Z,1.13
2023-03-14T12:44:44.377Z,0.83
2023-03-14T12:48:03.816Z,1.57
2023-03-14T12:50:38.410Z,0.43
2023-03-14T12:53:59.773Z,0.98
2023-03-14T12:56:46.276Z,1.38
2023-03-14T12:59:34.053Z,0.53
2023-03-14T13:02:22.099Z,0.98
2023-03-14T13:04:54.752Z,0.68
2023-03-14T13:07:37.126Z,0.30
2023-03-14T13:10:22.772Z,0.70
2023-03-14T13:12:56.644Z,0.60
2023-03-14T13:15:31.998Z,1.13
2023-03-14T13:18:12.031Z,0.50
2023-03-14T13:20:47.133Z,0.47
2023-03-14T13:23:27.367Z,0.47
2023-03-14T13:25:56.157Z,0.45
2023-03-14T13:28:24.956Z,1.48
2023-03-14T13:31:00.511Z,0.50
2023-03-14T13:33:31.078Z,0.52
2023-03-14T13:36:03.533Z,1.08
2023-03-14T13:38:34.663Z,0.75
2023-03-14T13:41:08.210Z,0.70
2023-03-14T13:43:42.042Z,0.85
2023-03-14T13:46:16.924Z,0.40
2023-03-14T13:48:51.863Z,0.30
2023-03-14T13:51:22.772Z,0.43
2023-03-14T13:53:53.192Z,0.70
2023-03-14T13:56:23.582Z,0.70
2023-03-14T13:58:52.214Z,0.75
2023-03-14T14:01:23.985Z,0.60
2023-03-14T14:03:56.682Z,0.47
2023-03-14T14:06:32.095Z,1.10
2023-03-14T14:09:04.207Z,1.85
2023-03-14T14:11:56.447Z,0.73
2023-03-14T14:14:36.190Z,1.30
2023-03-14T14:17:10.441Z,1.65
2023-03-14T14:19:42.909Z,3.28
2023-03-14T14:22:12.273Z,0.75
2023-03-14T14:24:41.804Z,0.95
2023-03-14T14:27:17.698Z,0.60
2023-03-14T14:29:47.116Z,0.85
2023-03-14T14:32:17.370Z,0.90
2023-03-14T14:34:57.788Z,0.38
2023-03-14T14:37:29.543Z,0.60
2023-03-14T14:40:01.655Z,2.60
2023-03-14T14:42:33.084Z,1.25
2023-03-14T14:45:04.869Z,1.33
2023-03-14T14:47:33.189Z,0.50
2023-03-14T14:50:07.039Z,1.60
2023-03-14T14:52:43.342Z,0.95
2023-03-14T14:55:19.940Z,0.75
2023-03-14T14:57:53.474Z,0.70
2023-03-14T15:00:25.027Z,0.90
2023-03-14T15:02:56.140Z,1.77
2023-03-14T15:05:30.950Z,1.60
2023-03-14T15:07:59.228Z,0.70
2023-03-14T15:10:28.149Z,0.60
2023-03-14T15:12:56.270Z,0.83
2023-03-14T15:15:24.375Z,1.70
2023-03-14T15:17:52.489Z,2.40
2023-03-14T15:20:24.522Z,3.53
2023-03-14T15:22:54.530Z,3.57
2023-03-14T15:25:47.468Z,3.13
2023-03-14T15:28:20.702Z,3.00
2023-03-14T15:30:49.848Z,1.23
2023-03-14T15:33:18.647Z,1.10
2023-03-14T15:35:48.391Z,3.93
2023-03-14T15:38:22.053Z,0.93
2023-03-14T15:40:50.901Z,1.97
2023-03-14T15:43:19.320Z,0.70
2023-03-14T15:45:48.071Z,0.90
2023-03-14T15:48:19.164Z,1.13
2023-03-14T15:50:47.932Z,1.10
2023-03-14T15:53:17.768Z,0.70
2023-03-14T15:55:45.824Z,0.80
2023-03-14T15:58:21.874Z,1.63
2023-03-14T16:00:51.588Z,1.13
2023-03-14T16:03:19.755Z,0.90
2023-03-14T16:05:47.881Z,1.70
2023-03-14T16:08:18.057Z,0.70
2023-03-14T16:10:47.783Z,1.17
2023-03-14T16:13:15.932Z,0.70
2023-03-14T16:15:44.039Z,1.00
2023-03-14T16:18:21.498Z,0.80
2023-03-14T16:20:56.202Z,1.07
2023-03-14T16:23:26.640Z,0.60
2023-03-14T16:25:56.849Z,0.60
2023-03-14T16:28:26.117Z,0.77
2023-03-14T16:31:01.511Z,1.67
2023-03-14T16:33:29.808Z,0.80
2023-03-14T16:36:01.253Z,1.27
2023-03-14T16:38:33.786Z,1.97
2023-03-14T16:41:05.884Z,0.90
2023-03-14T16:43:37.114Z,2.53
2023-03-14T16:46:06.814Z,3.77
2023-03-14T16:48:35.369Z,4.00
2023-03-14T16:51:04.170Z,3.90
2023-03-14T16:53:33.781Z,4.27
2023-03-14T16:56:01.917Z,5.23
2023-03-14T16:58:31.307Z,4.30
2023-03-14T17:01:09.780Z,5.30
2023-03-14T17:03:38.757Z,4.63
2023-03-14T17:06:07.950Z,3.47
2023-03-14T17:08:37.435Z,5.80
2023-03-14T17:11:05.878Z,4.43
2023-03-14T17:13:34.015Z,3.20
2023-03-14T17:16:03.473Z,4.20
2023-03-14T17:18:33.446Z,4.20
2023-03-14T17:21:02.596Z,4.33
2023-03-14T17:23:33.041Z,5.67
2023-03-14T17:26:03.004Z,7.47
2023-03-14T17:28:31.319Z,6.43
2023-03-14T17:31:09.016Z,6.03
2023-03-14T17:33:37.953Z,6.10
2023-03-14T17:36:08.102Z,5.00
2023-03-14T17:38:36.602Z,6.20
2023-03-14T17:41:10.112Z,6.63
2023-03-14T17:43:38.697Z,5.50
2023-03-14T17:46:12.006Z,4.70
2023-03-14T17:48:40.923Z,7.77
2023-03-14T17:51:09.211Z,4.43
2023-03-14T17:53:38.145Z,4.40
2023-03-14T17:56:09.070Z,4.20
2023-03-14T17:58:37.896Z,6.73
2023-03-14T18:01:12.256Z,4.37
2023-03-14T18:03:41.711Z,5.93
2023-03-14T18:06:12.171Z,6.97
2023-03-14T18:08:43.753Z,6.60
2023-03-14T18:11:14.297Z,4.50
2023-03-14T18:13:42.801Z,6.70
2023-03-14T18:16:15.030Z,5.43
2023-03-14T18:18:45.834Z,7.57
2023-03-14T18:21:15.370Z,8.83
2023-03-14T18:23:43.730Z,8.23
2023-03-14T18:26:13.157Z,6.60
2023-03-14T18:28:41.676Z,6.57
2023-03-14T18:31:12.879Z,10.53
2023-03-14T18:33:42.362Z,8.07
2023-03-14T18:36:13.137Z,3.97
2023-03-14T18:38:43.170Z,4.50
2023-03-14T18:41:15.627Z,9.97
2023-03-14T18:43:44.719Z,5.30
2023-03-14T18:46:13.600Z,7.23
2023-03-14T18:48:43.125Z,2.87
2023-03-14T18:51:12.599Z,6.57
2023-03-14T18:53:42.119Z,8.00
2023-03-14T18:56:14.118Z,7.87
2023-03-14T18:58:43.257Z,6.30
2023-03-14T19:01:12.556Z,7.70
2023-03-14T19:03:42.029Z,7.90
2023-03-14T19:06:12.041Z,7.00
2023-03-14T19:08:42.148Z,9.53
2023-03-14T19:11:14.512Z,6.90
2023-03-14T19:13:43.841Z,9.47
2023-03-14T19:16:14.401Z,6.90
2023-03-14T19:18:43.103Z,13.03
2023-03-14T19:21:14.169Z,9.03
2023-03-14T19:23:48.780Z,6.10
2023-03-14T19:26:18.688Z,3.23
2023-03-14T19:28:46.816Z,6.47
2023-03-14T19:31:15.236Z,7.13
2023-03-14T19:33:43.466Z,9.17
2023-03-14T19:36:23.865Z,8.30
2023-03-14T19:38:54.187Z,7.77
2023-03-14T19:41:26.249Z,6.20
2023-03-14T19:43:54.764Z,11.07
2023-03-14T19:46:24.115Z,7.77
2023-03-14T19:48:54.687Z,11.07
2023-03-14T19:51:23.988Z,4.93
2023-03-14T19:53:52.653Z,6.67
2023-03-14T19:56:24.160Z,5.37
2023-03-14T19:58:53.399Z,8.67
2023-03-14T20:01:22.163Z,7.93
2023-03-14T20:03:50.360Z,9.30
2023-03-14T20:06:18.446Z,4.17
2023-03-14T20:08:46.610Z,8.67
2023-03-14T20:11:15.260Z,7.20
2023-03-14T20:13:44.894Z,8.23
2023-03-14T20:16:13.120Z,10.30
2023-03-14T20:18:42.563Z,6.57
2023-03-14T20:21:13.667Z,7.37
2023-03-14T20:23:43.577Z,6.57
2023-03-14T20:26:12.561Z,5.47
2023-03-14T20:28:42.556Z,7.30
2023-03-14T20:31:12.250Z,6.93
2023-03-14T20:33:42.546Z,6.63
2023-03-14T20:36:10.989Z,6.33
2023-03-14T20:38:39.218Z,7.63
2023-03-14T20:41:09.275Z,6.10
2023-03-14T20:43:38.352Z,10.03
2023-03-14T20:46:06.831Z,7.97
2023-03-14T20:48:36.348Z,3.63
2023-03-14T20:51:04.733Z,6.60
2023-03-14T20:53:32.848Z,5.77
2023-03-14T20:56:00.988Z,6.13
2023-03-14T20:58:29.155Z,8.90
2023-03-14T21:00:58.713Z,8.70
2023-03-14T21:03:27.272Z,6.67
2023-03-14T21:05:57.005Z,11.00
2023-03-14T21:08:26.699Z,6.77
2023-03-14T21:10:56.555Z,5.33
2023-03-14T21:13:26.804Z,5.27
2023-03-14T21:15:55.258Z,7.83
2023-03-14T21:18:24.277Z,4.30
2023-03-14T21:20:57.417Z,6.50
2023-03-14T21:23:27.349Z,8.53
2023-03-14T21:25:56.806Z,7.43
2023-03-14T21:28:25.405Z,4.60
2023-03-14T21:30:54.000Z,6.50
2023-03-14T21:33:22.336Z,7.03
2023-03-14T21:35:52.844Z,6.27
2023-03-14T21:38:22.373Z,8.33
2023-03-14T21:40:51.424Z,8.97
2023-03-14T21:43:22.687Z,6.27
2023-03-14T21:45:50.854Z,6.07
2023-03-14T21:48:19.421Z,6.07
2023-03-14T21:50:48.167Z,5.00
2023-03-14T21:53:16.606Z,6.87
2023-03-14T21:55:48.137Z,6.23
2023-03-14T21:58:16.492Z,4.97
2023-03-14T22:00:49.097Z,6.57
2023-03-14T22:03:17.840Z,4.07
2023-03-14T22:05:47.253Z,6.67
2023-03-14T22:08:17.058Z,8.10
2023-03-14T22:10:48.812Z,7.00
2023-03-14T22:13:17.591Z,6.87
2023-03-14T22:15:48.224Z,6.37
2023-03-14T22:18:17.588Z,6.93
2023-03-14T22:20:46.376Z,7.00
2023-03-14T22:23:14.820Z,8.43
2023-03-14T22:25:44.442Z,7.57
2023-03-14T22:28:14.062Z,3.77
2023-03-14T22:30:42.788Z,5.93
2023-03-14T22:33:11.103Z,5.43
2023-03-14T22:35:39.313Z,4.47
2023-03-14T22:38:07.589Z,5.87
2023-03-14T22:40:38.683Z,5.77
2023-03-14T22:43:06.962Z,7.40
2023-03-14T22:45:36.661Z,8.03
2023-03-14T22:48:05.867Z,6.27
2023-03-14T22:50:34.022Z,6.27
2023-03-14T22:53:03.340Z,4.03
2023-03-14T22:55:31.586Z,5.73
2023-03-14T22:57:59.823Z,3.57
2023-03-14T23:00:27.996Z,4.73
2023-03-14T23:02:57.504Z,3.80
2023-03-14T23:05:25.677Z,6.80
2023-03-14T23:07:54.309Z,3.10
2023-03-14T23:10:22.675Z,6.80
2023-03-14T23:12:50.793Z,4.90
2023-03-14T23:15:19.056Z,4.13
2023-03-14T23:17:49.301Z,4.70
2023-03-14T23:20:19.136Z,6.97
2023-03-14T23:22:47.313Z,5.37
2023-03-14T23:25:15.530Z,2.53
2023-03-14T23:27:46.201Z,7.70
2023-03-14T23:30:16.415Z,5.17
2023-03-14T23:32:44.924Z,5.80
2023-03-14T23:35:14.647Z,6.97
2023-03-14T23:37:44.208Z,5.47
2023-03-14T23:40:14.093Z,7.47
2023-03-14T23:42:42.274Z,5.10
2023-03-14T23:45:14.028Z,6.37
2023-03-14T23:47:42.267Z,7.70
2023-03-14T23:50:12.140Z,9.70
2023-03-14T23:52:40.376Z,8.53
2023-03-14T23:55:10.710Z,4.23
2023-03-14T23:57:38.877Z,3.17
